sensor_id;sensor_type;location;lat;lon;timestamp;P1;durP1;ratioP1;P2;durP2;ratioP2
65187;SDS011;51775;51.148;6.950;2023-02-01T00:01:38;2.47;;;1.60;;
65187;SDS011;51775;51.148;6.950;2023-02-01T00:04:04;2.63;;;1.50;;
65187;SDS011;51775;51.148;6.950;2023-02-01T00:06:29;2.70;;;1.58;;
65187;SDS011;51775;51.148;6.950;2023-02-01T00:08:54;3.22;;;1.63;;
65187;SDS011;51775;51.148;6.950;2023-02-01T00:11:20;2.40;;;1.60;;
65187;SDS011;51775;51.148;6.950;2023-02-01T00:13:46;4.55;;;1.80;;
65187;SDS011;51775;51.148;6.950;2023-02-01T00:16:13;2.53;;;1.65;;
65187;SDS011;51775;51.148;6.950;2023-02-01T00:18:46;2.47;;;1.50;;
65187;SDS011;51775;51.148;6.950;2023-02-01T00:21:13;2.45;;;1.50;;
65187;SDS011;51775;51.148;6.950;2023-02-01T00:23:40;2.95;;;1.70;;
65187;SDS011;51775;51.148;6.950;2023-02-01T00:26:07;2.60;;;1.50;;
65187;SDS011;51775;51.148;6.950;2023-02-01T00:28:37;2.88;;;1.60;;
65187;SDS011;51775;51.148;6.950;2023-02-01T00:31:03;2.85;;;1.63;;
65187;SDS011;51775;51.148;6.950;2023-02-01T00:33:30;2.53;;;1.50;;
65187;SDS011;51775;51.148;6.950;2023-02-01T00:35:59;3.00;;;1.50;;
65187;SDS011;51775;51.148;6.950;2023-02-01T00:38:25;2.45;;;1.55;;
65187;SDS011;51775;51.148;6.950;2023-02-01T00:40:51;2.40;;;1.60;;
65187;SDS011;51775;51.148;6.950;2023-02-01T00:43:16;2.92;;;1.50;;
65187;SDS011;51775;51.148;6.950;2023-02-01T00:45:42;2.83;;;1.48;;
65187;SDS011;51775;51.148;6.950;2023-02-01T00:48:07;2.78;;;1.50;;
65187;SDS011;51775;51.148;6.950;2023-02-01T00:50:32;2.90;;;1.48;;
65187;SDS011;51775;51.148;6.950;2023-02-01T00:52:58;2.75;;;1.35;;
65187;SDS011;51775;51.148;6.950;2023-02-01T00:55:24;2.15;;;1.30;;
65187;SDS011;51775;51.148;6.950;2023-02-01T00:57:49;2.38;;;1.30;;
65187;SDS011;51775;51.148;6.950;2023-02-01T01:00:15;1.98;;;1.30;;
65187;SDS011;51775;51.148;6.950;2023-02-01T01:02:41;2.20;;;1.30;;
65187;SDS011;51775;51.148;6.950;2023-02-01T01:05:06;2.15;;;1.23;;
65187;SDS011;51775;51.148;6.950;2023-02-01T01:07:32;2.53;;;1.25;;
65187;SDS011;51775;51.148;6.950;2023-02-01T01:09:57;2.55;;;1.13;;
65187;SDS011;51775;51.148;6.950;2023-02-01T01:12:22;1.92;;;1.20;;
65187;SDS011;51775;51.148;6.950;2023-02-01T01:14:47;2.35;;;1.33;;
65187;SDS011;51775;51.148;6.950;2023-02-01T01:17:13;2.30;;;1.20;;
65187;SDS011;51775;51.148;6.950;2023-02-01T01:19:38;2.38;;;1.30;;
65187;SDS011;51775;51.148;6.950;2023-02-01T01:22:03;2.70;;;1.38;;
65187;SDS011;51775;51.148;6.950;2023-02-01T01:24:29;1.85;;;1.20;;
65187;SDS011;51775;51.148;6.950;2023-02-01T01:26:54;2.40;;;1.20;;
65187;SDS011;51775;51.148;6.950;2023-02-01T01:29:19;2.80;;;1.30;;
65187;SDS011;51775;51.148;6.950;2023-02-01T01:31:45;2.55;;;1.20;;
65187;SDS011;51775;51.148;6.950;2023-02-01T01:34:10;2.05;;;1.10;;
65187;SDS011;51775;51.148;6.950;2023-02-01T01:36:35;1.85;;;1.00;;
65187;SDS011;51775;51.148;6.950;2023-02-01T01:39:00;2.15;;;1.00;;
65187;SDS011;51775;51.148;6.950;2023-02-01T01:41:28;3.55;;;1.42;;
65187;SDS011;51775;51.148;6.950;2023-02-01T01:43:57;2.15;;;1.10;;
65187;SDS011;51775;51.148;6.950;2023-02-01T01:49:24;2.28;;;1.10;;
65187;SDS011;51775;51.148;6.950;2023-02-01T01:51:49;1.80;;;1.10;;
65187;SDS011;51775;51.148;6.950;2023-02-01T01:54:22;1.85;;;1.10;;
65187;SDS011;51775;51.148;6.950;2023-02-01T01:56:57;1.60;;;0.80;;
65187;SDS011;51775;51.148;6.950;2023-02-01T01:59:26;2.00;;;1.00;;
65187;SDS011;51775;51.148;6.950;2023-02-01T02:01:52;2.10;;;1.10;;
65187;SDS011;51775;51.148;6.950;2023-02-01T02:04:18;2.20;;;0.90;;
65187;SDS011;51775;51.148;6.950;2023-02-01T02:07:03;1.88;;;0.90;;
65187;SDS011;51775;51.148;6.950;2023-02-01T02:09:33;2.22;;;0.90;;
65187;SDS011;51775;51.148;6.950;2023-02-01T02:11:58;2.63;;;1.00;;
65187;SDS011;51775;51.148;6.950;2023-02-01T02:14:24;2.42;;;1.00;;
65187;SDS011;51775;51.148;6.950;2023-02-01T02:30:59;1.50;;;0.80;;
65187;SDS011;51775;51.148;6.950;2023-02-01T02:34:02;1.95;;;0.90;;
65187;SDS011;51775;51.148;6.950;2023-02-01T02:36:43;2.45;;;0.90;;
65187;SDS011;51775;51.148;6.950;2023-02-01T02:39:23;2.05;;;0.95;;
65187;SDS011;51775;51.148;6.950;2023-02-01T02:43:05;2.28;;;1.00;;
65187;SDS011;51775;51.148;6.950;2023-02-01T02:50:29;1.27;;;0.85;;
65187;SDS011;51775;51.148;6.950;2023-02-01T02:53:23;2.13;;;0.80;;
65187;SDS011;51775;51.148;6.950;2023-02-01T02:55:52;2.47;;;1.00;;
65187;SDS011;51775;51.148;6.950;2023-02-01T02:58:17;1.60;;;0.80;;
65187;SDS011;51775;51.148;6.950;2023-02-01T03:00:44;2.17;;;1.00;;
65187;SDS011;51775;51.148;6.950;2023-02-01T03:03:10;1.67;;;0.90;;
65187;SDS011;51775;51.148;6.950;2023-02-01T03:05:36;2.03;;;1.00;;
65187;SDS011;51775;51.148;6.950;2023-02-01T03:08:09;1.63;;;0.95;;
65187;SDS011;51775;51.148;6.950;2023-02-01T03:21:57;2.13;;;0.98;;
65187;SDS011;51775;51.148;6.950;2023-02-01T03:24:08;1.42;;;0.80;;
65187;SDS011;51775;51.148;6.950;2023-02-01T03:26:44;1.58;;;0.88;;
65187;SDS011;51775;51.148;6.950;2023-02-01T03:29:19;1.95;;;1.00;;
65187;SDS011;51775;51.148;6.950;2023-02-01T03:31:49;2.63;;;0.88;;
65187;SDS011;51775;51.148;6.950;2023-02-01T03:34:14;2.35;;;1.05;;
65187;SDS011;51775;51.148;6.950;2023-02-01T03:36:51;2.08;;;0.98;;
65187;SDS011;51775;51.148;6.950;2023-02-01T03:39:21;2.90;;;0.90;;
65187;SDS011;51775;51.148;6.950;2023-02-01T03:41:53;1.92;;;0.80;;
65187;SDS011;51775;51.148;6.950;2023-02-01T03:47:14;2.13;;;1.10;;
65187;SDS011;51775;51.148;6.950;2023-02-01T03:49:47;2.20;;;1.00;;
65187;SDS011;51775;51.148;6.950;2023-02-01T03:52:18;2.45;;;1.10;;
65187;SDS011;51775;51.148;6.950;2023-02-01T03:54:47;2.85;;;1.10;;
65187;SDS011;51775;51.148;6.950;2023-02-01T03:57:14;2.15;;;0.90;;
65187;SDS011;51775;51.148;6.950;2023-02-01T03:59:48;1.90;;;1.08;;
65187;SDS011;51775;51.148;6.950;2023-02-01T04:02:14;2.28;;;1.10;;
65187;SDS011;51775;51.148;6.950;2023-02-01T04:04:39;2.00;;;1.10;;
65187;SDS011;51775;51.148;6.950;2023-02-01T04:07:05;2.45;;;1.08;;
65187;SDS011;51775;51.148;6.950;2023-02-01T04:09:30;1.88;;;0.90;;
65187;SDS011;51775;51.148;6.950;2023-02-01T04:11:55;1.95;;;1.00;;
65187;SDS011;51775;51.148;6.950;2023-02-01T04:14:21;2.05;;;0.90;;
65187;SDS011;51775;51.148;6.950;2023-02-01T04:16:46;1.80;;;0.85;;
65187;SDS011;51775;51.148;6.950;2023-02-01T04:19:11;2.45;;;0.90;;
65187;SDS011;51775;51.148;6.950;2023-02-01T04:21:37;2.78;;;1.10;;
65187;SDS011;51775;51.148;6.950;2023-02-01T04:24:02;2.60;;;0.90;;
65187;SDS011;51775;51.148;6.950;2023-02-01T04:26:28;2.67;;;1.00;;
65187;SDS011;51775;51.148;6.950;2023-02-01T04:28:53;2.38;;;0.90;;
65187;SDS011;51775;51.148;6.950;2023-02-01T04:31:18;2.08;;;0.90;;
65187;SDS011;51775;51.148;6.950;2023-02-01T04:33:44;2.35;;;0.95;;
65187;SDS011;51775;51.148;6.950;2023-02-01T04:36:09;2.10;;;0.88;;
65187;SDS011;51775;51.148;6.950;2023-02-01T04:38:35;2.47;;;0.95;;
65187;SDS011;51775;51.148;6.950;2023-02-01T04:41:00;2.08;;;0.90;;
65187;SDS011;51775;51.148;6.950;2023-02-01T04:43:26;2.95;;;0.90;;
65187;SDS011;51775;51.148;6.950;2023-02-01T04:45:51;1.55;;;0.70;;
65187;SDS011;51775;51.148;6.950;2023-02-01T04:48:17;2.28;;;0.88;;
65187;SDS011;51775;51.148;6.950;2023-02-01T04:50:44;3.67;;;1.45;;
65187;SDS011;51775;51.148;6.950;2023-02-01T04:53:10;2.55;;;1.00;;
65187;SDS011;51775;51.148;6.950;2023-02-01T04:55:36;2.38;;;1.08;;
65187;SDS011;51775;51.148;6.950;2023-02-01T04:58:01;1.90;;;0.77;;
65187;SDS011;51775;51.148;6.950;2023-02-01T05:00:26;2.33;;;1.00;;
65187;SDS011;51775;51.148;6.950;2023-02-01T05:02:51;1.33;;;0.77;;
65187;SDS011;51775;51.148;6.950;2023-02-01T05:05:17;2.25;;;1.00;;
65187;SDS011;51775;51.148;6.950;2023-02-01T05:07:42;1.88;;;1.15;;
65187;SDS011;51775;51.148;6.950;2023-02-01T05:10:07;2.67;;;0.95;;
65187;SDS011;51775;51.148;6.950;2023-02-01T05:12:33;1.73;;;0.90;;
65187;SDS011;51775;51.148;6.950;2023-02-01T05:14:58;2.55;;;1.00;;
65187;SDS011;51775;51.148;6.950;2023-02-01T05:17:24;1.77;;;0.82;;
65187;SDS011;51775;51.148;6.950;2023-02-01T05:19:49;1.98;;;0.90;;
65187;SDS011;51775;51.148;6.950;2023-02-01T05:22:14;1.80;;;0.90;;
65187;SDS011;51775;51.148;6.950;2023-02-01T05:24:39;1.52;;;0.85;;
65187;SDS011;51775;51.148;6.950;2023-02-01T05:27:05;2.58;;;0.88;;
65187;SDS011;51775;51.148;6.950;2023-02-01T05:29:30;2.25;;;0.90;;
65187;SDS011;51775;51.148;6.950;2023-02-01T05:31:55;1.08;;;0.70;;
65187;SDS011;51775;51.148;6.950;2023-02-01T05:34:21;2.20;;;0.90;;
65187;SDS011;51775;51.148;6.950;2023-02-01T05:36:46;2.08;;;0.90;;
65187;SDS011;51775;51.148;6.950;2023-02-01T05:39:11;3.15;;;1.05;;
65187;SDS011;51775;51.148;6.950;2023-02-01T05:41:37;2.55;;;1.00;;
65187;SDS011;51775;51.148;6.950;2023-02-01T05:44:02;2.03;;;0.90;;
65187;SDS011;51775;51.148;6.950;2023-02-01T05:46:28;2.72;;;1.08;;
65187;SDS011;51775;51.148;6.950;2023-02-01T05:48:53;1.85;;;0.93;;
65187;SDS011;51775;51.148;6.950;2023-02-01T05:51:19;2.42;;;0.85;;
65187;SDS011;51775;51.148;6.950;2023-02-01T05:53:44;2.30;;;1.10;;
65187;SDS011;51775;51.148;6.950;2023-02-01T05:56:10;3.97;;;1.15;;
65187;SDS011;51775;51.148;6.950;2023-02-01T05:58:36;2.42;;;1.00;;
65187;SDS011;51775;51.148;6.950;2023-02-01T06:01:02;1.80;;;0.80;;
65187;SDS011;51775;51.148;6.950;2023-02-01T06:03:28;2.72;;;1.00;;
65187;SDS011;51775;51.148;6.950;2023-02-01T06:05:54;1.65;;;0.80;;
65187;SDS011;51775;51.148;6.950;2023-02-01T06:08:19;2.55;;;0.80;;
65187;SDS011;51775;51.148;6.950;2023-02-01T06:10:45;2.45;;;1.17;;
65187;SDS011;51775;51.148;6.950;2023-02-01T06:13:10;2.80;;;0.90;;
65187;SDS011;51775;51.148;6.950;2023-02-01T06:15:35;3.03;;;1.10;;
65187;SDS011;51775;51.148;6.950;2023-02-01T06:18:01;1.95;;;0.80;;
65187;SDS011;51775;51.148;6.950;2023-02-01T06:20:26;1.45;;;0.70;;
65187;SDS011;51775;51.148;6.950;2023-02-01T06:22:51;2.17;;;0.90;;
65187;SDS011;51775;51.148;6.950;2023-02-01T06:25:16;1.83;;;0.80;;
65187;SDS011;51775;51.148;6.950;2023-02-01T06:27:42;2.25;;;0.80;;
65187;SDS011;51775;51.148;6.950;2023-02-01T06:30:07;1.38;;;0.70;;
65187;SDS011;51775;51.148;6.950;2023-02-01T06:32:33;2.50;;;0.90;;
65187;SDS011;51775;51.148;6.950;2023-02-01T06:34:58;1.92;;;0.90;;
65187;SDS011;51775;51.148;6.950;2023-02-01T06:37:24;2.05;;;0.90;;
65187;SDS011;51775;51.148;6.950;2023-02-01T06:39:49;2.08;;;0.80;;
65187;SDS011;51775;51.148;6.950;2023-02-01T06:42:14;2.47;;;0.90;;
65187;SDS011;51775;51.148;6.950;2023-02-01T06:44:40;2.28;;;0.90;;
65187;SDS011;51775;51.148;6.950;2023-02-01T06:47:05;1.42;;;0.85;;
65187;SDS011;51775;51.148;6.950;2023-02-01T06:49:30;2.45;;;1.00;;
65187;SDS011;51775;51.148;6.950;2023-02-01T06:51:56;2.25;;;0.90;;
65187;SDS011;51775;51.148;6.950;2023-02-01T06:54:21;2.90;;;0.90;;
65187;SDS011;51775;51.148;6.950;2023-02-01T06:56:47;2.08;;;0.82;;
65187;SDS011;51775;51.148;6.950;2023-02-01T06:59:12;2.28;;;1.00;;
65187;SDS011;51775;51.148;6.950;2023-02-01T07:01:37;4.82;;;1.13;;
65187;SDS011;51775;51.148;6.950;2023-02-01T07:04:02;3.55;;;0.90;;
65187;SDS011;51775;51.148;6.950;2023-02-01T07:06:28;2.40;;;1.00;;
65187;SDS011;51775;51.148;6.950;2023-02-01T07:08:53;1.80;;;0.82;;
65187;SDS011;51775;51.148;6.950;2023-02-01T07:11:19;2.85;;;1.02;;
65187;SDS011;51775;51.148;6.950;2023-02-01T07:13:44;2.63;;;0.90;;
65187;SDS011;51775;51.148;6.950;2023-02-01T07:16:11;2.10;;;0.82;;
65187;SDS011;51775;51.148;6.950;2023-02-01T07:18:38;2.35;;;0.80;;
65187;SDS011;51775;51.148;6.950;2023-02-01T07:21:03;2.08;;;0.80;;
65187;SDS011;51775;51.148;6.950;2023-02-01T07:23:29;2.00;;;0.95;;
65187;SDS011;51775;51.148;6.950;2023-02-01T07:25:58;2.47;;;0.88;;
65187;SDS011;51775;51.148;6.950;2023-02-01T07:28:25;4.93;;;0.95;;
65187;SDS011;51775;51.148;6.950;2023-02-01T07:30:51;2.88;;;0.70;;
65187;SDS011;51775;51.148;6.950;2023-02-01T07:33:20;2.67;;;0.93;;
65187;SDS011;51775;51.148;6.950;2023-02-01T07:35:47;4.03;;;0.93;;
65187;SDS011;51775;51.148;6.950;2023-02-01T07:38:13;2.40;;;1.05;;
65187;SDS011;51775;51.148;6.950;2023-02-01T07:40:38;3.38;;;0.90;;
65187;SDS011;51775;51.148;6.950;2023-02-01T07:43:03;1.98;;;0.70;;
65187;SDS011;51775;51.148;6.950;2023-02-01T07:45:28;3.20;;;0.93;;
65187;SDS011;51775;51.148;6.950;2023-02-01T07:47:54;2.00;;;0.90;;
65187;SDS011;51775;51.148;6.950;2023-02-01T07:50:19;2.65;;;1.02;;
65187;SDS011;51775;51.148;6.950;2023-02-01T07:52:44;4.18;;;1.00;;
65187;SDS011;51775;51.148;6.950;2023-02-01T07:55:10;2.10;;;0.77;;
65187;SDS011;51775;51.148;6.950;2023-02-01T07:57:35;2.03;;;1.02;;
65187;SDS011;51775;51.148;6.950;2023-02-01T08:00:00;3.00;;;1.10;;
65187;SDS011;51775;51.148;6.950;2023-02-01T08:02:26;2.55;;;0.80;;
65187;SDS011;51775;51.148;6.950;2023-02-01T08:04:51;1.38;;;0.65;;
65187;SDS011;51775;51.148;6.950;2023-02-01T08:07:16;0.77;;;0.47;;
65187;SDS011;51775;51.148;6.950;2023-02-01T08:09:42;2.10;;;0.90;;
65187;SDS011;51775;51.148;6.950;2023-02-01T08:12:07;3.00;;;0.90;;
65187;SDS011;51775;51.148;6.950;2023-02-01T08:14:32;4.55;;;1.10;;
65187;SDS011;51775;51.148;6.950;2023-02-01T08:16:57;2.40;;;0.80;;
65187;SDS011;51775;51.148;6.950;2023-02-01T08:19:23;2.45;;;0.60;;
65187;SDS011;51775;51.148;6.950;2023-02-01T08:21:48;3.63;;;1.30;;
65187;SDS011;51775;51.148;6.950;2023-02-01T08:24:14;1.48;;;0.75;;
65187;SDS011;51775;51.148;6.950;2023-02-01T08:26:39;1.33;;;0.55;;
65187;SDS011;51775;51.148;6.950;2023-02-01T08:29:05;2.00;;;0.55;;
65187;SDS011;51775;51.148;6.950;2023-02-01T08:31:31;1.38;;;0.77;;
65187;SDS011;51775;51.148;6.950;2023-02-01T08:33:58;1.33;;;0.63;;
65187;SDS011;51775;51.148;6.950;2023-02-01T08:36:25;1.23;;;0.63;;
65187;SDS011;51775;51.148;6.950;2023-02-01T08:38:52;2.03;;;0.40;;
65187;SDS011;51775;51.148;6.950;2023-02-01T08:41:19;1.45;;;0.75;;
65187;SDS011;51775;51.148;6.950;2023-02-01T08:43:46;1.67;;;0.60;;
65187;SDS011;51775;51.148;6.950;2023-02-01T08:46:12;1.25;;;0.60;;
65187;SDS011;51775;51.148;6.950;2023-02-01T08:48:37;0.73;;;0.47;;
65187;SDS011;51775;51.148;6.950;2023-02-01T08:51:10;1.15;;;0.47;;
65187;SDS011;51775;51.148;6.950;2023-02-01T08:53:37;0.88;;;0.50;;
65187;SDS011;51775;51.148;6.950;2023-02-01T08:56:02;1.27;;;0.60;;
65187;SDS011;51775;51.148;6.950;2023-02-01T08:58:29;1.52;;;0.80;;
65187;SDS011;51775;51.148;6.950;2023-02-01T09:00:54;1.50;;;0.63;;
65187;SDS011;51775;51.148;6.950;2023-02-01T09:03:19;1.15;;;0.60;;
65187;SDS011;51775;51.148;6.950;2023-02-01T09:05:45;1.35;;;0.60;;
65187;SDS011;51775;51.148;6.950;2023-02-01T09:08:10;1.50;;;0.82;;
65187;SDS011;51775;51.148;6.950;2023-02-01T09:10:36;2.10;;;0.82;;
65187;SDS011;51775;51.148;6.950;2023-02-01T09:13:01;2.20;;;1.00;;
65187;SDS011;51775;51.148;6.950;2023-02-01T09:15:27;2.50;;;0.82;;
65187;SDS011;51775;51.148;6.950;2023-02-01T09:17:52;1.67;;;0.80;;
65187;SDS011;51775;51.148;6.950;2023-02-01T09:20:17;1.13;;;0.63;;
65187;SDS011;51775;51.148;6.950;2023-02-01T09:22:43;2.33;;;0.70;;
65187;SDS011;51775;51.148;6.950;2023-02-01T09:25:08;1.95;;;0.77;;
65187;SDS011;51775;51.148;6.950;2023-02-01T09:27:34;2.35;;;0.88;;
65187;SDS011;51775;51.148;6.950;2023-02-01T09:29:59;1.73;;;0.80;;
65187;SDS011;51775;51.148;6.950;2023-02-01T09:32:25;3.40;;;1.10;;
65187;SDS011;51775;51.148;6.950;2023-02-01T09:34:50;2.30;;;0.85;;
65187;SDS011;51775;51.148;6.950;2023-02-01T09:37:17;2.72;;;1.00;;
65187;SDS011;51775;51.148;6.950;2023-02-01T09:39:42;2.22;;;0.90;;
65187;SDS011;51775;51.148;6.950;2023-02-01T09:47:40;1.70;;;0.90;;
65187;SDS011;51775;51.148;6.950;2023-02-01T09:50:13;2.60;;;1.10;;
65187;SDS011;51775;51.148;6.950;2023-02-01T09:52:45;2.38;;;1.08;;
65187;SDS011;51775;51.148;6.950;2023-02-01T09:55:16;2.65;;;0.90;;
65187;SDS011;51775;51.148;6.950;2023-02-01T10:00:16;2.13;;;0.90;;
65187;SDS011;51775;51.148;6.950;2023-02-01T10:02:46;2.38;;;0.95;;
65187;SDS011;51775;51.148;6.950;2023-02-01T10:05:12;3.00;;;1.00;;
65187;SDS011;51775;51.148;6.950;2023-02-01T10:08:01;2.88;;;0.90;;
65187;SDS011;51775;51.148;6.950;2023-02-01T10:10:35;1.98;;;0.90;;
65187;SDS011;51775;51.148;6.950;2023-02-01T10:18:57;1.70;;;0.82;;
65187;SDS011;51775;51.148;6.950;2023-02-01T10:21:40;2.08;;;0.73;;
65187;SDS011;51775;51.148;6.950;2023-02-01T10:24:18;3.05;;;1.08;;
65187;SDS011;51775;51.148;6.950;2023-02-01T10:29:30;4.20;;;1.40;;
65187;SDS011;51775;51.148;6.950;2023-02-01T10:32:00;2.38;;;0.93;;
65187;SDS011;51775;51.148;6.950;2023-02-01T10:34:27;3.42;;;1.00;;
65187;SDS011;51775;51.148;6.950;2023-02-01T10:37:02;1.65;;;0.95;;
65187;SDS011;51775;51.148;6.950;2023-02-01T10:39:52;2.10;;;0.90;;
65187;SDS011;51775;51.148;6.950;2023-02-01T10:42:20;1.90;;;0.93;;
65187;SDS011;51775;51.148;6.950;2023-02-01T10:44:49;2.08;;;1.00;;
65187;SDS011;51775;51.148;6.950;2023-02-01T10:47:14;1.58;;;0.77;;
65187;SDS011;51775;51.148;6.950;2023-02-01T10:49:45;2.70;;;0.88;;
65187;SDS011;51775;51.148;6.950;2023-02-01T10:52:20;2.03;;;0.88;;
65187;SDS011;51775;51.148;6.950;2023-02-01T10:54:49;2.28;;;1.02;;
65187;SDS011;51775;51.148;6.950;2023-02-01T10:57:24;2.95;;;1.10;;
65187;SDS011;51775;51.148;6.950;2023-02-01T10:59:51;3.00;;;1.17;;
65187;SDS011;51775;51.148;6.950;2023-02-01T11:05:07;1.80;;;0.88;;
65187;SDS011;51775;51.148;6.950;2023-02-01T11:07:34;2.30;;;1.00;;
65187;SDS011;51775;51.148;6.950;2023-02-01T11:10:01;2.22;;;1.02;;
65187;SDS011;51775;51.148;6.950;2023-02-01T11:14:59;1.83;;;0.88;;
65187;SDS011;51775;51.148;6.950;2023-02-01T11:17:30;2.30;;;1.00;;
65187;SDS011;51775;51.148;6.950;2023-02-01T11:20:08;3.90;;;1.10;;
65187;SDS011;51775;51.148;6.950;2023-02-01T11:22:45;1.42;;;0.73;;
65187;SDS011;51775;51.148;6.950;2023-02-01T11:25:18;3.10;;;1.00;;
65187;SDS011;51775;51.148;6.950;2023-02-01T11:27:44;2.95;;;1.20;;
65187;SDS011;51775;51.148;6.950;2023-02-01T11:30:14;2.50;;;0.90;;
65187;SDS011;51775;51.148;6.950;2023-02-01T11:32:47;2.15;;;0.90;;
65187;SDS011;51775;51.148;6.950;2023-02-01T11:35:16;3.33;;;1.00;;
65187;SDS011;51775;51.148;6.950;2023-02-01T11:37:43;2.42;;;1.10;;
65187;SDS011;51775;51.148;6.950;2023-02-01T11:42:52;2.42;;;0.90;;
65187;SDS011;51775;51.148;6.950;2023-02-01T11:45:29;2.88;;;0.82;;
65187;SDS011;51775;51.148;6.950;2023-02-01T11:47:56;2.38;;;1.00;;
65187;SDS011;51775;51.148;6.950;2023-02-01T11:56:10;2.22;;;0.80;;
65187;SDS011;51775;51.148;6.950;2023-02-01T11:59:05;2.35;;;0.90;;
65187;SDS011;51775;51.148;6.950;2023-02-01T12:02:38;2.13;;;0.90;;
65187;SDS011;51775;51.148;6.950;2023-02-01T12:07:34;2.63;;;1.00;;
65187;SDS011;51775;51.148;6.950;2023-02-01T12:15:51;2.85;;;0.98;;
65187;SDS011;51775;51.148;6.950;2023-02-01T12:21:04;1.87;;;0.90;;
65187;SDS011;51775;51.148;6.950;2023-02-01T12:26:34;1.75;;;0.80;;
65187;SDS011;51775;51.148;6.950;2023-02-01T12:34:11;1.90;;;0.85;;
65187;SDS011;51775;51.148;6.950;2023-02-01T12:45:34;2.65;;;1.10;;
65187;SDS011;51775;51.148;6.950;2023-02-01T12:48:16;2.40;;;0.93;;
65187;SDS011;51775;51.148;6.950;2023-02-01T12:50:57;2.30;;;0.90;;
65187;SDS011;51775;51.148;6.950;2023-02-01T12:56:11;2.40;;;1.00;;
65187;SDS011;51775;51.148;6.950;2023-02-01T12:58:50;1.35;;;0.80;;
65187;SDS011;51775;51.148;6.950;2023-02-01T13:01:20;1.98;;;0.90;;
65187;SDS011;51775;51.148;6.950;2023-02-01T13:03:55;3.13;;;1.13;;
65187;SDS011;51775;51.148;6.950;2023-02-01T13:06:28;3.08;;;1.02;;
65187;SDS011;51775;51.148;6.950;2023-02-01T13:09:02;2.38;;;0.88;;
65187;SDS011;51775;51.148;6.950;2023-02-01T13:11:49;3.42;;;1.20;;
65187;SDS011;51775;51.148;6.950;2023-02-01T13:17:12;1.35;;;0.80;;
65187;SDS011;51775;51.148;6.950;2023-02-01T13:22:20;2.38;;;0.90;;
65187;SDS011;51775;51.148;6.950;2023-02-01T13:24:57;3.28;;;0.80;;
65187;SDS011;51775;51.148;6.950;2023-02-01T13:27:26;2.65;;;0.90;;
65187;SDS011;51775;51.148;6.950;2023-02-01T13:36:02;2.03;;;0.90;;
65187;SDS011;51775;51.148;6.950;2023-02-01T13:46:59;1.55;;;0.60;;
65187;SDS011;51775;51.148;6.950;2023-02-01T13:49:28;1.45;;;0.70;;
65187;SDS011;51775;51.148;6.950;2023-02-01T13:51:58;2.38;;;0.80;;
65187;SDS011;51775;51.148;6.950;2023-02-01T13:54:25;1.70;;;0.80;;
65187;SDS011;51775;51.148;6.950;2023-02-01T13:56:55;1.17;;;0.50;;
65187;SDS011;51775;51.148;6.950;2023-02-01T14:05:09;0.88;;;0.50;;
65187;SDS011;51775;51.148;6.950;2023-02-01T14:13:13;1.10;;;0.60;;
65187;SDS011;51775;51.148;6.950;2023-02-01T14:24:25;2.25;;;0.82;;
65187;SDS011;51775;51.148;6.950;2023-02-01T14:26:56;1.80;;;0.70;;
65187;SDS011;51775;51.148;6.950;2023-02-01T15:00:46;2.75;;;1.05;;
65187;SDS011;51775;51.148;6.950;2023-02-01T15:05:57;3.30;;;1.17;;
65187;SDS011;51775;51.148;6.950;2023-02-01T15:08:33;6.32;;;2.08;;
65187;SDS011;51775;51.148;6.950;2023-02-01T15:11:03;1.75;;;0.82;;
65187;SDS011;51775;51.148;6.950;2023-02-01T15:13:33;2.50;;;0.95;;
65187;SDS011;51775;51.148;6.950;2023-02-01T15:15:59;3.08;;;1.00;;
65187;SDS011;51775;51.148;6.950;2023-02-01T15:18:35;2.72;;;1.05;;
65187;SDS011;51775;51.148;6.950;2023-02-01T15:21:01;2.78;;;0.98;;
65187;SDS011;51775;51.148;6.950;2023-02-01T15:23:28;3.13;;;0.80;;
65187;SDS011;51775;51.148;6.950;2023-02-01T15:25:54;2.08;;;0.77;;
65187;SDS011;51775;51.148;6.950;2023-02-01T15:28:19;3.05;;;0.98;;
65187;SDS011;51775;51.148;6.950;2023-02-01T15:33:28;1.27;;;0.60;;
65187;SDS011;51775;51.148;6.950;2023-02-01T15:36:17;2.92;;;1.00;;
65187;SDS011;51775;51.148;6.950;2023-02-01T15:38:43;1.50;;;0.70;;
65187;SDS011;51775;51.148;6.950;2023-02-01T15:41:16;1.30;;;0.70;;
65187;SDS011;51775;51.148;6.950;2023-02-01T15:46:32;2.22;;;0.70;;
65187;SDS011;51775;51.148;6.950;2023-02-01T15:49:00;2.50;;;1.00;;
65187;SDS011;51775;51.148;6.950;2023-02-01T15:51:30;1.67;;;0.80;;
65187;SDS011;51775;51.148;6.950;2023-02-01T15:54:01;2.13;;;0.68;;
65187;SDS011;51775;51.148;6.950;2023-02-01T15:56:30;1.90;;;0.70;;
65187;SDS011;51775;51.148;6.950;2023-02-01T15:59:00;2.30;;;0.85;;
65187;SDS011;51775;51.148;6.950;2023-02-01T16:01:28;2.63;;;0.90;;
65187;SDS011;51775;51.148;6.950;2023-02-01T16:04:02;1.50;;;0.70;;
65187;SDS011;51775;51.148;6.950;2023-02-01T16:06:47;1.77;;;0.90;;
65187;SDS011;51775;51.148;6.950;2023-02-01T16:12:01;3.00;;;0.93;;
65187;SDS011;51775;51.148;6.950;2023-02-01T16:14:28;2.58;;;0.77;;
65187;SDS011;51775;51.148;6.950;2023-02-01T16:16:55;2.10;;;0.80;;
65187;SDS011;51775;51.148;6.950;2023-02-01T16:19:22;0.98;;;0.70;;
65187;SDS011;51775;51.148;6.950;2023-02-01T16:21:47;2.22;;;0.77;;
65187;SDS011;51775;51.148;6.950;2023-02-01T16:24:13;1.25;;;0.60;;
65187;SDS011;51775;51.148;6.950;2023-02-01T16:26:38;1.35;;;0.60;;
65187;SDS011;51775;51.148;6.950;2023-02-01T16:29:04;0.70;;;0.60;;
65187;SDS011;51775;51.148;6.950;2023-02-01T16:31:30;0.70;;;0.43;;
65187;SDS011;51775;51.148;6.950;2023-02-01T16:33:57;0.82;;;0.55;;
65187;SDS011;51775;51.148;6.950;2023-02-01T16:36:22;2.03;;;0.50;;
65187;SDS011;51775;51.148;6.950;2023-02-01T16:38:49;6.60;;;0.80;;
65187;SDS011;51775;51.148;6.950;2023-02-01T16:41:15;0.65;;;0.35;;
65187;SDS011;51775;51.148;6.950;2023-02-01T16:43:42;2.40;;;0.60;;
65187;SDS011;51775;51.148;6.950;2023-02-01T16:46:15;1.08;;;0.50;;
65187;SDS011;51775;51.148;6.950;2023-02-01T16:48:42;0.75;;;0.40;;
65187;SDS011;51775;51.148;6.950;2023-02-01T16:51:13;1.85;;;0.80;;
65187;SDS011;51775;51.148;6.950;2023-02-01T16:53:40;1.58;;;0.75;;
65187;SDS011;51775;51.148;6.950;2023-02-01T16:59:06;1.30;;;0.60;;
65187;SDS011;51775;51.148;6.950;2023-02-01T17:01:32;2.50;;;0.73;;
65187;SDS011;51775;51.148;6.950;2023-02-01T17:03:57;1.38;;;0.70;;
65187;SDS011;51775;51.148;6.950;2023-02-01T17:06:23;1.45;;;0.70;;
65187;SDS011;51775;51.148;6.950;2023-02-01T17:08:50;1.15;;;0.80;;
65187;SDS011;51775;51.148;6.950;2023-02-01T17:11:17;1.65;;;0.73;;
65187;SDS011;51775;51.148;6.950;2023-02-01T17:13:42;1.88;;;0.95;;
65187;SDS011;51775;51.148;6.950;2023-02-01T17:18:42;3.10;;;1.20;;
65187;SDS011;51775;51.148;6.950;2023-02-01T17:21:08;2.10;;;1.02;;
65187;SDS011;51775;51.148;6.950;2023-02-01T17:23:35;2.38;;;1.00;;
65187;SDS011;51775;51.148;6.950;2023-02-01T17:26:00;1.55;;;0.82;;
65187;SDS011;51775;51.148;6.950;2023-02-01T17:28:25;2.22;;;1.17;;
65187;SDS011;51775;51.148;6.950;2023-02-01T17:30:51;1.90;;;1.00;;
65187;SDS011;51775;51.148;6.950;2023-02-01T17:33:19;1.88;;;0.80;;
65187;SDS011;51775;51.148;6.950;2023-02-01T17:35:47;2.00;;;1.00;;
65187;SDS011;51775;51.148;6.950;2023-02-01T17:38:13;1.67;;;1.00;;
65187;SDS011;51775;51.148;6.950;2023-02-01T17:40:38;2.33;;;1.00;;
65187;SDS011;51775;51.148;6.950;2023-02-01T17:43:04;3.67;;;1.05;;
65187;SDS011;51775;51.148;6.950;2023-02-01T17:45:37;1.80;;;0.88;;
65187;SDS011;51775;51.148;6.950;2023-02-01T17:48:06;8.30;;;1.00;;
65187;SDS011;51775;51.148;6.950;2023-02-01T17:50:34;0.95;;;0.60;;
65187;SDS011;51775;51.148;6.950;2023-02-01T17:53:01;1.52;;;0.90;;
65187;SDS011;51775;51.148;6.950;2023-02-01T17:55:27;2.80;;;1.13;;
65187;SDS011;51775;51.148;6.950;2023-02-01T17:57:52;3.97;;;1.10;;
65187;SDS011;51775;51.148;6.950;2023-02-01T18:00:18;2.95;;;0.95;;